Main page
METAR-TAF:

METAR-TAF

Airports :

Blackpool, England

Blackpool Airport

latitude: 53-46N, longitude: 003-02W, elevation: 10 m

Current weather observation

The report was made 25 minutes ago, at 06:50 UTC
Wind 14 kt from the East/Southeast
Temperature 19°C
Humidity 64%
Pressure 1019 hPa
Visibility 10 km or more
no clouds below 1500 m and no cumulonimbus

METAR: EGNH 260650Z 12014KT CAVOK 19/12 Q1019

Time: 08:15 (07:15 UTC)

Forecast

The report was made 1 hour and 22 minutes ago, at 05:53 UTC
Forecast valid from 26 at 06 UTC to 26 at 15 UTC
Wind 12 kt from the Southeast
Visibility 10 km or more
no clouds below 1500 m and no cumulonimbus

TAF: EGNH 260553Z 2606/2615 14012KT CAVOK

Weather observations and forecasts of more than 4000 airports (METAR and TAF reports).

The available stations are represented by yellow and red dots on the map.

Hover mouse over dot to see the name of the station.

Then click to see weather observations and forecasts.

To change the map : click on the green buttons with a black cross to zoom in, on the green button with a dash to zoom out, or on the green arrows for adjacent maps.


METAR-TAF: